Time;durP1;ratioP1;P1;durP2;ratioP2;P2;SDS_P1;SDS_P2;PMS_P1;PMS_P2;Temp;Humidity;BMP_temperature;BMP_pressure;BME280_temperature;BME280_humidity;BME280_pressure;Samples;Min_cycle;Max_cycle;Signal;HPM_P1;HPM_P2
2022/02/04 00:24:57;;;;;;;17.50;6.87;;;7.00;97.30;;;;;;5051144;28;20419;-83
2022/02/04 00:27:26;;;;;;;15.03;6.90;;;6.90;97.30;;;;;;5051431;28;20423;-84
2022/02/04 00:32:20;;;;;;;16.50;7.37;;;6.90;97.30;;;;;;5052286;28;20434;-82
2022/02/04 00:34:52;;;;;;;15.70;7.30;;;6.90;97.30;;;;;;5042726;28;20227;-82
2022/02/04 00:38:05;;;;;;;12.73;5.97;;;6.90;97.30;;;;;;5031747;28;20431;-83
2022/02/04 00:40:13;;;;;;;11.40;5.57;;;6.80;97.30;;;;;;5031722;28;20423;-83
2022/02/04 00:42:39;;;;;;;13.10;6.37;;;6.80;97.30;;;;;;5031152;28;20435;-84
2022/02/04 00:45:27;;;;;;;17.93;7.03;;;6.80;97.30;;;;;;5031787;28;20410;-83
2022/02/04 00:48:02;;;;;;;14.50;6.40;;;6.80;97.30;;;;;;5031338;28;20196;-83
2022/02/04 00:50:38;;;;;;;15.63;7.00;;;6.80;97.30;;;;;;5016366;28;20811;-83
2022/02/04 00:53:18;;;;;;;16.93;6.50;;;6.80;97.30;;;;;;5031657;28;20997;-82
2022/02/04 00:56:03;;;;;;;14.90;6.50;;;6.80;97.30;;;;;;5031704;28;20446;-82
2022/02/04 01:28:23;;;;;;;15.20;8.40;;;6.70;97.30;;;;;;5032396;28;20468;-82
2022/02/04 01:30:49;;;;;;;17.50;8.47;;;6.70;97.30;;;;;;5030796;28;20498;-82
2022/02/04 01:33:15;;;;;;;18.87;9.07;;;6.70;97.30;;;;;;5032879;28;20439;-83
2022/02/04 01:35:41;;;;;;;16.40;7.60;;;6.60;97.30;;;;;;5046962;28;20459;-82
2022/02/04 01:38:07;;;;;;;14.20;6.40;;;6.60;97.30;;;;;;5052305;28;20172;-82
2022/02/04 01:40:33;;;;;;;15.40;6.30;;;6.60;97.30;;;;;;5052314;28;20207;-83
2022/02/04 01:42:58;;;;;;;12.57;5.90;;;6.60;97.30;;;;;;5051574;28;20426;-83
2022/02/04 01:45:24;;;;;;;11.77;5.60;;;6.60;97.30;;;;;;5051146;28;20176;-82
2022/02/04 01:47:56;;;;;;;11.90;5.40;;;6.50;97.30;;;;;;5051282;28;20649;-82
2022/02/04 01:50:27;;;;;;;10.80;5.27;;;6.50;97.30;;;;;;5051863;28;20175;-82
2022/02/04 01:52:54;;;;;;;12.53;5.93;;;6.50;97.30;;;;;;5050969;28;20832;-82
2022/02/04 01:55:20;;;;;;;12.10;5.50;;;6.50;97.30;;;;;;5050926;28;20499;-82
2022/02/04 01:57:46;;;;;;;10.83;5.50;;;6.50;97.30;;;;;;5054101;28;20410;-82
2022/02/04 02:00:12;;;;;;;13.30;5.70;;;6.50;97.30;;;;;;5054056;28;20411;-82
2022/02/04 02:02:38;;;;;;;11.40;6.13;;;6.50;97.30;;;;;;5054223;28;20195;-82
2022/02/04 02:05:04;;;;;;;16.13;6.13;;;6.40;97.30;;;;;;5054920;28;20414;-82
2022/02/04 02:07:31;;;;;;;10.60;5.50;;;6.40;97.30;;;;;;5053808;28;20620;-82
2022/02/04 02:10:03;;;;;;;10.67;5.63;;;6.40;97.30;;;;;;5053623;28;20928;-82
2022/02/04 02:12:35;;;;;;;16.93;7.07;;;6.40;97.30;;;;;;5053642;28;21024;-82
2022/02/04 02:47:35;;;;;;;9.07;4.90;;;6.20;97.30;;;;;;5035682;28;20457;-82
2022/02/04 02:50:24;;;;;;;11.20;4.67;;;6.20;97.30;;;;;;5034103;28;20415;-83
2022/02/04 02:58:16;;;;;;;9.00;4.20;;;6.20;97.30;;;;;;5035036;28;20502;-82
2022/02/04 03:01:04;;;;;;;8.10;3.90;;;6.20;97.30;;;;;;5033157;28;20455;-82
2022/02/04 03:03:30;;;;;;;6.60;4.03;;;6.20;97.30;;;;;;5034351;28;20415;-83
2022/02/04 03:05:57;;;;;;;10.17;4.57;;;6.20;97.30;;;;;;5050182;28;20466;-83
2022/02/04 03:08:22;;;;;;;11.57;5.00;;;6.10;97.30;;;;;;5054368;28;20406;-83
2022/02/04 03:10:54;;;;;;;10.10;4.70;;;6.10;97.30;;;;;;5052326;28;20418;-83
2022/02/04 03:13:21;;;;;;;8.10;3.90;;;6.20;97.30;;;;;;5052679;28;20253;-83
2022/02/04 03:15:55;;;;;;;8.43;4.17;;;6.10;97.30;;;;;;5073994;23;20573;-89
2022/02/04 03:18:23;;;;;;;11.23;4.43;;;6.10;97.30;;;;;;5018128;28;20407;-89
2022/02/04 03:20:52;;;;;;;10.20;4.43;;;6.10;97.30;;;;;;5035210;28;20451;-89
2022/02/04 03:23:19;;;;;;;6.97;3.57;;;6.10;97.30;;;;;;5018246;28;20991;-89
2022/02/04 03:25:50;;;;;;;11.60;4.90;;;6.10;97.30;;;;;;5017598;28;20438;-89
2022/02/04 03:28:22;;;;;;;9.17;3.80;;;6.10;97.30;;;;;;5036166;28;20894;-89
2022/02/04 03:30:49;;;;;;;8.60;4.43;;;6.10;97.30;;;;;;5017720;28;20451;-89
2022/02/04 03:33:18;;;;;;;9.33;4.03;;;6.10;97.30;;;;;;5017856;28;20439;-89
2022/02/04 03:35:43;;;;;;;7.50;4.40;;;6.10;97.30;;;;;;5017622;28;20505;-89
2022/02/04 03:38:09;;;;;;;8.80;3.93;;;6.10;97.30;;;;;;5017748;28;20985;-89
2022/02/04 03:40:34;;;;;;;9.97;5.20;;;6.10;97.30;;;;;;5017233;28;20747;-89
2022/02/04 03:43:00;;;;;;;7.97;4.13;;;6.10;97.30;;;;;;5017224;28;20175;-88
2022/02/04 03:45:25;;;;;;;10.43;4.60;;;6.10;97.30;;;;;;5017144;28;20295;-89
2022/02/04 03:47:51;;;;;;;9.67;4.20;;;6.10;97.30;;;;;;5017291;28;20259;-90
2022/02/04 03:50:17;;;;;;;9.90;4.20;;;6.10;97.30;;;;;;5017280;28;20274;-89
2022/02/04 03:52:42;;;;;;;13.43;4.90;;;6.10;97.30;;;;;;5017326;28;20168;-89
2022/02/04 03:55:09;;;;;;;8.37;4.30;;;6.10;97.30;;;;;;5035071;28;20188;-89
2022/02/04 03:57:35;;;;;;;8.03;4.73;;;6.10;97.30;;;;;;5017342;28;20172;-89
2022/02/04 04:00:01;;;;;;;11.17;4.97;;;6.10;97.30;;;;;;5034896;28;20886;-88
2022/02/04 04:02:26;;;;;;;11.53;5.20;;;6.10;97.30;;;;;;5016838;28;20319;-89
2022/02/04 04:04:52;;;;;;;11.20;5.17;;;6.10;97.30;;;;;;5017390;28;20188;-89
2022/02/04 04:07:18;;;;;;;10.43;4.70;;;6.10;97.30;;;;;;5016852;28;20681;-89
2022/02/04 04:09:50;;;;;;;13.80;5.33;;;6.10;97.30;;;;;;5017631;28;20412;-89
2022/02/04 04:12:17;;;;;;;8.13;4.13;;;6.00;97.30;;;;;;5016975;28;20164;-89
2022/02/04 04:14:43;;;;;;;10.97;5.77;;;6.00;97.30;;;;;;5016960;28;20447;-89
2022/02/04 04:17:08;;;;;;;9.50;4.70;;;6.00;97.30;;;;;;5016756;28;20435;-90
2022/02/04 04:19:34;;;;;;;7.87;4.67;;;6.00;97.30;;;;;;5033837;28;20177;-88
2022/02/04 04:21:59;;;;;;;8.70;4.37;;;6.00;97.30;;;;;;5016210;28;20228;-89
2022/02/04 04:24:25;;;;;;;10.00;4.30;;;6.00;97.30;;;;;;5016897;28;20173;-89
2022/02/04 04:26:50;;;;;;;8.90;5.00;;;6.00;97.30;;;;;;5016581;28;20522;-90
2022/02/04 04:29:16;;;;;;;7.90;4.53;;;6.00;97.30;;;;;;5017023;28;20617;-89
2022/02/04 04:31:41;;;;;;;8.00;4.30;;;6.00;97.30;;;;;;5016226;28;20207;-89
2022/02/04 04:34:07;;;;;;;11.53;5.10;;;6.00;97.30;;;;;;5017116;28;20172;-89
2022/02/04 04:36:34;;;;;;;10.07;5.03;;;6.00;97.30;;;;;;5016294;28;20204;-88
2022/02/04 04:39:19;;;;;;;9.53;4.43;;;6.00;97.30;;;;;;5016722;28;20712;-89
2022/02/04 04:42:07;;;;;;;7.83;4.17;;;6.00;97.30;;;;;;5016272;28;20474;-89
2022/02/04 04:45:05;;;;;;;9.27;4.50;;;6.00;97.30;;;;;;5016872;28;20407;-88
2022/02/04 05:26:16;;;;;;;12.20;4.57;;;5.80;97.30;;;;;;5034453;28;20481;-89
2022/02/04 05:31:19;;;;;;;8.23;4.53;;;5.80;97.30;;;;;;5037105;28;20426;-87
2022/02/04 05:33:44;;;;;;;9.33;4.57;;;5.80;97.30;;;;;;5020212;28;20415;-89
2022/02/04 05:36:11;;;;;;;9.20;5.07;;;5.80;97.30;;;;;;5020440;28;20192;-88
2022/02/04 05:38:38;;;;;;;9.73;4.90;;;5.80;97.30;;;;;;5020389;28;20176;-89
2022/02/04 05:41:05;;;;;;;10.10;4.77;;;5.80;97.30;;;;;;5020482;28;20463;-88
2022/02/04 05:43:34;;;;;;;10.97;4.43;;;5.80;97.30;;;;;;5020382;28;20447;-88
2022/02/04 05:46:04;;;;;;;11.60;4.77;;;5.90;97.30;;;;;;5038093;28;20415;-89
2022/02/04 05:48:34;;;;;;;11.23;5.20;;;5.90;97.30;;;;;;5020195;28;20494;-89
2022/02/04 05:51:27;;;;;;;8.23;4.33;;;5.90;97.30;;;;;;5019825;28;20467;-89
2022/02/04 05:54:08;;;;;;;12.50;4.97;;;5.80;97.30;;;;;;5019949;28;20407;-88
2022/02/04 06:00:02;;;;;;;12.23;5.67;;;5.80;97.30;;;;;;5037390;28;20477;-89
2022/02/04 06:02:03;;;;;;;11.77;5.07;;;5.80;97.30;;;;;;5023917;28;20454;-90
2022/02/04 06:23:15;;;;;;;9.13;4.30;;;5.90;97.30;;;;;;4989877;28;20419;-89
2022/02/04 06:25:43;;;;;;;8.43;4.30;;;5.80;97.30;;;;;;5018248;28;20438;-89
2022/02/04 06:28:08;;;;;;;8.77;4.27;;;5.80;97.30;;;;;;5018778;28;20179;-90
2022/02/04 06:30:35;;;;;;;10.20;4.60;;;5.80;97.30;;;;;;5018908;28;20423;-89
2022/02/04 06:33:01;;;;;;;9.70;4.53;;;5.80;97.30;;;;;;5018215;28;20184;-90
2022/02/04 06:35:28;;;;;;;11.20;5.50;;;5.80;97.30;;;;;;5016608;28;20852;-89
2022/02/04 06:37:53;;;;;;;10.80;5.17;;;5.80;97.30;;;;;;5016464;28;20177;-89
2022/02/04 06:40:19;;;;;;;11.90;5.07;;;5.80;97.30;;;;;;5016022;28;20486;-89
2022/02/04 06:42:44;;;;;;;12.23;5.70;;;5.80;97.30;;;;;;5015740;28;20674;-89
2022/02/04 06:45:10;;;;;;;8.80;4.80;;;5.80;97.30;;;;;;5018175;28;20211;-89
2022/02/04 06:47:36;;;;;;;13.00;5.53;;;5.90;97.30;;;;;;5018353;28;20223;-88
2022/02/04 06:50:01;;;;;;;11.17;5.10;;;5.90;97.30;;;;;;5018142;28;20243;-89
2022/02/04 06:52:27;;;;;;;16.60;5.50;;;5.80;97.30;;;;;;5018378;28;20651;-89
2022/02/04 06:54:55;;;;;;;15.70;5.90;;;5.80;97.30;;;;;;5034534;28;20204;-89
2022/02/04 06:57:21;;;;;;;13.27;5.27;;;5.80;97.30;;;;;;5034665;28;20191;-89
2022/02/04 06:59:47;;;;;;;11.80;4.63;;;5.80;97.30;;;;;;5018555;28;20415;-89
2022/02/04 07:02:14;;;;;;;12.23;5.10;;;5.80;97.30;;;;;;5018057;28;20201;-89
2022/02/04 07:04:40;;;;;;;10.80;5.27;;;5.80;97.30;;;;;;5017845;28;20439;-89
2022/02/04 07:07:06;;;;;;;11.20;4.90;;;5.80;97.30;;;;;;5017759;28;20498;-89
2022/02/04 07:19:49;;;;;;;12.60;5.70;;;5.90;97.30;;;;;;5033660;28;20430;-89
2022/02/04 07:22:29;;;;;;;13.17;4.90;;;5.90;97.30;;;;;;5016844;28;20211;-89
2022/02/04 07:24:56;;;;;;;15.77;5.00;;;5.90;97.30;;;;;;5017357;28;20439;-89
2022/02/04 07:27:29;;;;;;;11.60;5.60;;;5.90;97.30;;;;;;5017426;28;20426;-89
2022/02/04 07:29:55;;;;;;;12.70;6.40;;;6.00;97.30;;;;;;5017907;28;20419;-89
2022/02/04 07:32:33;;;;;;;8.83;5.27;;;5.90;97.30;;;;;;5017384;28;20427;-89
2022/02/04 07:43:00;;;;;;;10.70;5.53;;;5.90;97.30;;;;;;5036469;28;20422;-89
2022/02/04 07:45:26;;;;;;;11.50;5.50;;;5.90;97.30;;;;;;5018203;28;20462;-89
2022/02/04 07:47:52;;;;;;;11.00;5.20;;;5.90;97.30;;;;;;5017465;28;20396;-89
2022/02/04 07:50:20;;;;;;;10.60;5.70;;;5.90;97.30;;;;;;5017111;28;20246;-88
2022/02/04 07:52:48;;;;;;;11.97;4.93;;;5.90;97.30;;;;;;5034758;28;20252;-89
2022/02/04 07:55:13;;;;;;;9.83;4.63;;;5.90;97.30;;;;;;5017512;28;20976;-89
2022/02/04 07:57:40;;;;;;;11.87;5.00;;;5.90;97.30;;;;;;5017077;28;20411;-89
2022/02/04 08:00:06;;;;;;;10.83;5.20;;;5.90;97.30;;;;;;5017568;28;20175;-89
2022/02/04 08:02:33;;;;;;;10.30;4.47;;;5.90;97.30;;;;;;5017064;28;20455;-88
2022/02/04 08:05:02;;;;;;;11.00;5.00;;;6.00;97.30;;;;;;5016307;28;20474;-90
2022/02/04 08:07:32;;;;;;;10.07;6.03;;;6.00;97.30;;;;;;5034399;28;20411;-90
2022/02/04 08:10:09;;;;;;;10.43;5.07;;;6.00;97.30;;;;;;5034016;28;20395;-89
2022/02/04 08:15:43;;;;;;;9.37;4.47;;;6.00;97.30;;;;;;5034418;28;20462;-90
2022/02/04 08:18:26;;;;;;;15.83;4.30;;;6.00;97.30;;;;;;5033981;28;20423;-89
2022/02/04 08:21:09;;;;;;;8.13;4.30;;;6.00;97.30;;;;;;5034329;28;20442;-89
2022/02/04 08:29:37;;;;;;;11.73;5.17;;;6.10;97.30;;;;;;5033849;28;20889;-89
2022/02/04 08:32:20;;;;;;;11.53;4.77;;;6.10;97.30;;;;;;5034725;28;20415;-89
2022/02/04 08:35:03;;;;;;;18.10;4.63;;;6.10;97.30;;;;;;5016337;28;20445;-90
2022/02/04 08:53:51;;;;;;;7.87;4.17;;;6.30;97.30;;;;;;5033924;28;20445;-88
2022/02/04 08:56:21;;;;;;;4.97;2.87;;;6.40;97.30;;;;;;5033975;28;20851;-89
2022/02/04 08:58:57;;;;;;;5.83;2.80;;;6.40;97.30;;;;;;5016086;28;20989;-90
2022/02/04 09:01:32;;;;;;;6.53;3.53;;;6.50;97.30;;;;;;5015807;28;20547;-89
2022/02/04 09:04:11;;;;;;;7.10;3.57;;;6.60;97.30;;;;;;5016215;28;20418;-89
2022/02/04 09:06:40;;;;;;;4.80;2.27;;;6.60;97.30;;;;;;5036654;28;20442;-89
2022/02/04 09:09:12;;;;;;;5.23;2.80;;;6.70;97.30;;;;;;5020668;28;20411;-89
2022/02/04 09:11:42;;;;;;;4.30;2.40;;;6.70;97.30;;;;;;5019547;28;20411;-89
2022/02/04 09:17:12;;;;;;;6.57;3.87;;;6.80;97.30;;;;;;5037690;28;20559;-90
2022/02/04 09:20:02;;;;;;;6.67;2.93;;;6.90;97.30;;;;;;5020150;28;20469;-90
2022/02/04 09:22:43;;;;;;;3.60;2.10;;;6.90;97.30;;;;;;5051518;22;20556;-86
2022/02/04 09:25:10;;;;;;;5.27;2.73;;;7.00;97.30;;;;;;4998708;28;20450;-86
2022/02/04 09:27:36;;;;;;;5.57;2.73;;;7.00;97.30;;;;;;4999137;28;20416;-86
2022/02/04 09:30:06;;;;;;;6.00;2.97;;;7.10;97.30;;;;;;4999754;28;20408;-86
2022/02/04 09:32:31;;;;;;;6.10;2.97;;;7.20;97.30;;;;;;5016936;28;20427;-86
2022/02/04 09:34:57;;;;;;;2.90;2.37;;;7.30;97.30;;;;;;4999170;28;20416;-86
2022/02/04 09:37:23;;;;;;;5.93;2.67;;;7.30;97.30;;;;;;4999096;28;20181;-86
2022/02/04 09:39:48;;;;;;;6.57;2.97;;;7.30;97.30;;;;;;4998849;28;20184;-86
2022/02/04 09:42:14;;;;;;;4.30;2.50;;;7.30;97.30;;;;;;4998897;28;20220;-86
2022/02/04 09:44:39;;;;;;;5.93;3.83;;;7.30;97.30;;;;;;5002112;28;20244;-86
2022/02/04 09:47:05;;;;;;;4.70;2.30;;;7.30;97.30;;;;;;4999878;28;20188;-86
2022/02/04 09:49:35;;;;;;;3.77;2.53;;;7.40;97.30;;;;;;4998428;28;20189;-86
2022/02/04 10:09:05;;;;;;;4.13;2.53;;;7.50;97.30;;;;;;5017757;28;20498;-86
2022/02/04 10:19:36;;;;;;;4.40;3.03;;;7.70;97.30;;;;;;5015483;28;20399;-85
2022/02/04 10:22:03;;;;;;;6.90;2.90;;;7.70;97.30;;;;;;4994608;28;20503;-87
2022/02/04 10:24:30;;;;;;;3.57;2.60;;;7.70;97.30;;;;;;4995810;28;20927;-86
2022/02/04 10:27:16;;;;;;;5.33;2.97;;;7.70;97.30;;;;;;4994814;28;20951;-86
2022/02/04 10:29:49;;;;;;;9.20;3.00;;;7.80;97.30;;;;;;4994950;28;20417;-86
2022/02/04 10:32:14;;;;;;;3.30;2.40;;;7.90;97.30;;;;;;4994277;28;20447;-86
2022/02/04 10:34:43;;;;;;;4.97;3.23;;;8.00;97.30;;;;;;4994730;28;20421;-86
2022/02/04 10:37:27;;;;;;;7.40;2.50;;;8.10;97.30;;;;;;4995667;28;20202;-86
2022/02/04 10:40:18;;;;;;;4.67;2.50;;;8.10;97.30;;;;;;4994387;28;20413;-87
2022/02/04 10:50:49;;;;;;;4.33;2.43;;;8.30;97.30;;;;;;4995452;28;20475;-87
2022/02/04 11:01:57;;;;;;;3.00;2.03;;;8.70;97.30;;;;;;4996196;28;20441;-87
2022/02/04 11:04:30;;;;;;;3.87;2.57;;;8.70;97.30;;;;;;4994910;28;20421;-87
2022/02/04 11:35:08;;;;;;;2.10;1.80;;;8.40;97.30;;;;;;5015025;28;20404;-86
2022/02/04 11:52:29;;;;;;;2.10;1.90;;;9.00;97.30;;;;;;5015746;28;20431;-87
2022/02/04 11:54:56;;;;;;;2.57;1.83;;;9.20;97.30;;;;;;4996297;28;20478;-86
2022/02/04 11:57:26;;;;;;;2.57;1.60;;;9.10;97.30;;;;;;4996461;28;20427;-86
2022/02/04 12:00:00;;;;;;;2.00;1.53;;;8.90;97.30;;;;;;4996198;28;20474;-87
2022/02/04 12:02:26;;;;;;;3.20;1.90;;;8.60;97.30;;;;;;5013780;28;20467;-87
2022/02/04 12:05:04;;;;;;;3.30;1.70;;;8.50;97.30;;;;;;5013525;28;20401;-87
2022/02/04 12:07:38;;;;;;;1.97;1.60;;;8.60;97.30;;;;;;5014266;28;20176;-86
2022/02/04 12:10:19;;;;;;;2.43;1.90;;;8.50;97.30;;;;;;4996711;28;20435;-87
2022/02/04 12:12:56;;;;;;;3.33;1.90;;;8.60;97.30;;;;;;4993711;28;20463;-84
2022/02/04 12:15:31;;;;;;;3.63;2.03;;;8.60;97.30;;;;;;4976443;28;20456;-87
2022/02/04 12:17:57;;;;;;;2.87;1.50;;;8.60;97.30;;;;;;4977278;28;20423;-87
2022/02/04 12:23:28;;;;;;;1.97;1.00;;;8.50;97.30;;;;;;4993851;28;20464;-86
2022/02/04 12:25:55;;;;;;;2.80;1.20;;;8.50;97.30;;;;;;4994551;28;20413;-86
2022/02/04 12:28:43;;;;;;;1.10;1.10;;;8.40;97.30;;;;;;4976350;28;20417;-86
2022/02/04 12:31:24;;;;;;;1.73;1.40;;;8.40;97.30;;;;;;4976160;28;20420;-87
2022/02/04 12:33:53;;;;;;;1.93;1.30;;;8.30;97.30;;;;;;4978738;28;20405;-86
2022/02/04 12:36:30;;;;;;;1.43;1.20;;;8.30;97.30;;;;;;4976034;28;20453;-86
2022/02/04 12:38:58;;;;;;;1.80;1.33;;;8.30;97.30;;;;;;4975792;28;20412;-87
2022/02/04 12:41:41;;;;;;;1.13;1.10;;;8.30;97.30;;;;;;4975270;28;20479;-86
2022/02/04 12:44:18;;;;;;;3.90;2.53;;;8.30;97.30;;;;;;4976604;28;20397;-86
2022/02/04 12:46:46;;;;;;;1.40;1.30;;;8.30;97.30;;;;;;4993514;28;20455;-87
2022/02/04 12:49:15;;;;;;;4.17;2.00;;;8.30;97.30;;;;;;4976751;28;20973;-86
2022/02/04 12:54:43;;;;;;;2.30;1.27;;;8.30;97.30;;;;;;4994534;28;20412;-86
2022/02/04 13:00:19;;;;;;;1.93;1.50;;;8.40;97.30;;;;;;4996206;28;20401;-86
2022/02/04 13:03:08;;;;;;;2.50;1.80;;;8.40;97.30;;;;;;4975887;28;20496;-86
2022/02/04 13:11:16;;;;;;;1.47;1.20;;;8.50;97.30;;;;;;4994248;28;20455;-86
2022/02/04 13:13:47;;;;;;;1.80;1.33;;;8.50;97.30;;;;;;4976727;28;20441;-87
2022/02/04 13:16:35;;;;;;;2.00;1.30;;;8.60;97.30;;;;;;4975983;28;20492;-86
2022/02/04 13:19:02;;;;;;;2.10;1.30;;;8.60;97.30;;;;;;4975477;28;20455;-86
2022/02/04 13:21:30;;;;;;;2.30;1.37;;;8.60;97.30;;;;;;4976198;28;20515;-86
2022/02/04 13:24:06;;;;;;;1.00;0.90;;;8.70;97.30;;;;;;4976961;28;20479;-86
2022/02/04 13:26:32;;;;;;;1.20;1.10;;;8.70;97.30;;;;;;4977257;28;20423;-87
2022/02/04 13:28:59;;;;;;;1.30;1.00;;;8.80;97.30;;;;;;4975866;28;20417;-87
2022/02/04 13:31:26;;;;;;;1.57;1.10;;;8.90;97.30;;;;;;4975957;28;20185;-86
2022/02/04 13:33:53;;;;;;;1.10;1.00;;;9.00;97.30;;;;;;4977176;28;20875;-86
2022/02/04 13:36:28;;;;;;;1.40;1.10;;;9.00;97.30;;;;;;4998400;28;20401;-86
2022/02/04 13:39:25;;;;;;;1.17;1.10;;;9.00;97.30;;;;;;4976324;28;20504;-86
2022/02/04 13:42:09;;;;;;;1.60;1.20;;;9.00;97.30;;;;;;4976169;28;20563;-86
2022/02/04 13:44:49;;;;;;;1.10;1.10;;;9.00;97.30;;;;;;4976864;28;20415;-87
2022/02/04 13:47:30;;;;;;;2.97;1.53;;;9.00;97.30;;;;;;4976483;28;20405;-87
2022/02/04 13:50:38;;;;;;;1.30;1.23;;;8.90;97.30;;;;;;4976407;28;20509;-86
2022/02/04 13:53:33;;;;;;;1.73;1.13;;;8.90;97.30;;;;;;4978803;28;20437;-86
2022/02/04 13:56:17;;;;;;;1.17;1.10;;;8.90;97.30;;;;;;4979520;28;20421;-87
2022/02/04 13:58:55;;;;;;;1.17;0.90;;;9.00;97.30;;;;;;4979723;28;20440;-87
2022/02/04 14:01:34;;;;;;;1.70;1.20;;;9.00;97.30;;;;;;4979072;28;20530;-86
2022/02/04 14:04:01;;;;;;;1.37;1.10;;;9.00;97.30;;;;;;4979188;28;20938;-87
2022/02/04 14:06:30;;;;;;;1.20;1.10;;;8.90;97.30;;;;;;4979821;28;20488;-87
2022/02/04 14:09:02;;;;;;;1.13;1.03;;;8.90;97.30;;;;;;4980023;28;20421;-87
2022/02/04 14:11:36;;;;;;;2.23;1.20;;;8.80;97.30;;;;;;4981889;28;20397;-86
2022/02/04 14:14:08;;;;;;;1.10;0.97;;;8.80;97.30;;;;;;5005086;28;20401;-88
2022/02/04 14:16:35;;;;;;;1.10;1.10;;;8.70;97.30;;;;;;4979953;28;20416;-87
2022/02/04 14:19:00;;;;;;;1.10;1.00;;;8.70;97.30;;;;;;4979492;28;20516;-86
2022/02/04 14:21:26;;;;;;;1.10;1.10;;;8.60;97.30;;;;;;4978942;28;20551;-86
2022/02/04 14:23:55;;;;;;;1.97;1.33;;;8.50;97.30;;;;;;4978859;28;20186;-86
2022/02/04 14:26:36;;;;;;;1.17;0.90;;;8.50;97.30;;;;;;4996612;28;20336;-86
2022/02/04 14:29:09;;;;;;;0.90;0.90;;;8.50;97.30;;;;;;4995415;28;20409;-87
2022/02/04 14:31:45;;;;;;;1.90;1.40;;;8.50;97.30;;;;;;4996194;28;20453;-86
2022/02/04 14:34:42;;;;;;;2.00;1.33;;;8.50;97.30;;;;;;4978451;28;20807;-85
2022/02/04 14:37:15;;;;;;;2.33;1.60;;;8.50;97.30;;;;;;4995641;28;20500;-86
2022/02/04 14:53:20;;;;;;;2.10;1.40;;;8.50;97.30;;;;;;4995772;28;20437;-86
2022/02/04 15:01:21;;;;;;;1.43;1.03;;;8.50;97.30;;;;;;4995308;28;20475;-86
2022/02/04 15:06:25;;;;;;;2.50;1.13;;;8.40;97.30;;;;;;4995097;28;20504;-87
2022/02/04 15:08:52;;;;;;;1.80;1.20;;;8.50;97.30;;;;;;4994454;28;20459;-87
2022/02/04 15:11:20;;;;;;;2.30;1.70;;;8.40;97.30;;;;;;4995026;28;21082;-86
2022/02/04 15:13:48;;;;;;;2.57;1.20;;;8.40;97.30;;;;;;4977231;28;20421;-86
2022/02/04 15:16:14;;;;;;;1.40;0.97;;;8.40;97.30;;;;;;4977476;28;20409;-86
2022/02/04 15:18:41;;;;;;;2.77;1.20;;;8.40;97.30;;;;;;4977565;28;20457;-86
2022/02/04 15:21:13;;;;;;;1.00;0.80;;;8.40;97.30;;;;;;4994671;28;20464;-86
2022/02/04 15:23:41;;;;;;;2.50;1.10;;;8.40;97.30;;;;;;4974739;28;21042;-86
2022/02/04 15:26:09;;;;;;;2.00;1.20;;;8.40;97.30;;;;;;4974690;28;20426;-86
2022/02/04 15:28:48;;;;;;;1.33;1.10;;;8.40;97.30;;;;;;4973734;28;20517;-86
2022/02/04 15:31:22;;;;;;;2.30;1.10;;;8.40;97.30;;;;;;4975431;28;20410;-86
2022/02/04 15:33:49;;;;;;;2.23;1.13;;;8.40;97.30;;;;;;4976318;28;20434;-86
2022/02/04 15:36:23;;;;;;;1.63;1.27;;;8.40;97.30;;;;;;4996700;28;20482;-86
2022/02/04 15:38:50;;;;;;;1.47;0.90;;;8.40;97.30;;;;;;4993925;28;20934;-87
2022/02/04 15:41:15;;;;;;;2.03;1.40;;;8.30;97.30;;;;;;4993709;28;20464;-87
2022/02/04 15:43:41;;;;;;;2.67;1.30;;;8.30;97.30;;;;;;4993023;28;20527;-86
2022/02/04 15:52:11;;;;;;;2.33;1.23;;;8.30;97.30;;;;;;4994458;28;20985;-86
2022/02/04 15:57:18;;;;;;;2.00;1.53;;;8.30;97.30;;;;;;4994691;28;20512;-86
2022/02/04 16:00:13;;;;;;;1.10;1.10;;;8.30;97.30;;;;;;4992899;28;21116;-87
2022/02/04 16:03:47;;;;;;;4.40;1.83;;;8.20;97.30;;;;;;4992772;28;20500;-86
2022/02/04 16:05:35;;;;;;;1.60;1.47;;;8.20;97.30;;;;;;4988893;28;20429;-86
2022/02/04 16:08:01;;;;;;;1.43;1.30;;;8.20;97.30;;;;;;4993331;28;20762;-86
2022/02/04 16:10:38;;;;;;;1.33;1.23;;;8.20;97.30;;;;;;5030190;23;21009;-82
2022/02/04 16:15:46;;;;;;;1.57;1.37;;;8.20;97.30;;;;;;5032004;28;20469;-83
2022/02/04 16:18:18;;;;;;;2.03;1.30;;;8.20;97.30;;;;;;5031360;28;20399;-83
2022/02/04 16:23:33;;;;;;;2.70;1.90;;;8.20;97.30;;;;;;5053976;28;20446;-82
2022/02/04 16:26:25;;;;;;;1.87;1.47;;;8.20;97.30;;;;;;5052452;28;20502;-82
2022/02/04 16:28:44;;;;;;;1.63;1.50;;;8.20;97.30;;;;;;5052755;28;20430;-82
2022/02/04 16:31:13;;;;;;;1.50;1.23;;;8.10;97.30;;;;;;5051289;28;20426;-82
2022/02/04 16:33:39;;;;;;;1.30;1.30;;;8.10;97.30;;;;;;5051269;28;20211;-82
2022/02/04 16:36:12;;;;;;;2.40;1.53;;;8.00;97.30;;;;;;5051651;28;20481;-83
2022/02/04 16:38:39;;;;;;;2.03;1.50;;;8.00;97.30;;;;;;5051152;28;20230;-83
2022/02/04 16:41:09;;;;;;;2.10;1.30;;;7.90;97.30;;;;;;5050196;28;20453;-84
2022/02/04 16:43:35;;;;;;;2.00;1.50;;;7.90;97.30;;;;;;5051320;28;20948;-84
2022/02/04 16:46:06;;;;;;;1.40;1.30;;;7.90;97.30;;;;;;5050842;28;20438;-84
2022/02/04 16:48:35;;;;;;;2.70;1.77;;;7.80;97.30;;;;;;5052376;28;20459;-83
2022/02/04 16:51:05;;;;;;;1.60;1.60;;;7.80;97.30;;;;;;5050899;28;20464;-84
2022/02/04 16:53:31;;;;;;;2.77;1.90;;;7.80;97.30;;;;;;5053034;28;20988;-83
2022/02/04 16:55:56;;;;;;;2.00;1.77;;;7.80;97.30;;;;;;5051308;28;20426;-84
2022/02/04 16:58:22;;;;;;;2.00;1.80;;;7.80;97.30;;;;;;5053016;28;20421;-84
2022/02/04 17:00:47;;;;;;;2.33;1.80;;;7.80;97.30;;;;;;5051341;28;20207;-84
2022/02/04 17:03:15;;;;;;;2.67;1.83;;;7.70;97.30;;;;;;5051442;28;20182;-84
2022/02/04 17:08:08;;;;;;;2.20;1.40;;;7.70;97.30;;;;;;5053020;28;20398;-83
2022/02/04 17:10:39;;;;;;;1.80;1.60;;;7.70;97.30;;;;;;5051045;28;20289;-84
2022/02/04 17:13:07;;;;;;;1.97;1.87;;;7.70;97.30;;;;;;5052095;28;20422;-84
2022/02/04 17:15:37;;;;;;;3.37;1.93;;;7.70;97.30;;;;;;5051731;28;20418;-84
2022/02/04 17:18:07;;;;;;;2.17;1.50;;;7.70;97.30;;;;;;5044521;28;21038;-85
2022/02/04 17:20:33;;;;;;;4.03;1.70;;;7.70;97.30;;;;;;5052125;28;20470;-83
2022/02/04 17:23:04;;;;;;;2.53;2.10;;;7.60;97.30;;;;;;5034769;28;20474;-83
2022/02/04 17:25:34;;;;;;;2.70;1.67;;;7.60;97.30;;;;;;5048825;28;20410;-84
2022/02/04 17:28:00;;;;;;;4.80;2.37;;;7.60;97.30;;;;;;5047971;28;20445;-83
2022/02/04 17:30:26;;;;;;;4.57;2.03;;;7.60;97.30;;;;;;5055024;28;20469;-83
2022/02/04 17:32:57;;;;;;;2.70;1.60;;;7.60;97.30;;;;;;5055512;28;20426;-82
2022/02/04 17:35:29;;;;;;;3.60;2.27;;;7.60;97.30;;;;;;5055816;28;20497;-83
2022/02/04 17:38:01;;;;;;;4.37;1.93;;;7.50;97.30;;;;;;5045524;28;20959;-83
2022/02/04 17:40:27;;;;;;;3.00;1.80;;;7.50;97.30;;;;;;5039327;23;20648;-79
2022/02/04 17:42:55;;;;;;;2.80;2.10;;;7.50;97.30;;;;;;5018479;28;20554;-81
2022/02/04 17:45:22;;;;;;;2.83;1.73;;;7.50;97.30;;;;;;5013872;28;20428;-82
2022/02/04 17:47:58;;;;;;;2.60;1.97;;;7.50;97.30;;;;;;5015104;28;20937;-81
2022/02/04 17:50:33;;;;;;;3.40;2.60;;;7.50;97.30;;;;;;5014471;28;20476;-82
2022/02/04 17:53:06;;;;;;;6.77;2.50;;;7.50;97.30;;;;;;5013083;28;20520;-81
2022/02/04 17:55:40;;;;;;;1.83;1.73;;;7.50;97.30;;;;;;5013152;28;20460;-82
2022/02/04 17:58:20;;;;;;;2.27;1.50;;;7.50;97.30;;;;;;5018384;28;20818;-83
2022/02/04 18:01:17;;;;;;;2.73;1.60;;;7.50;97.30;;;;;;5025765;28;20419;-82
2022/02/04 18:08:53;;;;;;;1.97;1.63;;;7.50;97.30;;;;;;5017340;28;20507;-84
2022/02/04 18:11:19;;;;;;;2.30;1.60;;;7.50;97.30;;;;;;5015103;28;20908;-82
2022/02/04 18:13:45;;;;;;;1.20;1.10;;;7.50;97.30;;;;;;5015619;28;20177;-82
2022/02/04 18:16:11;;;;;;;1.20;1.17;;;7.50;97.30;;;;;;5016177;28;20432;-83
2022/02/04 18:18:37;;;;;;;1.70;1.47;;;7.60;97.30;;;;;;5016021;28;20548;-82
2022/02/04 18:21:07;;;;;;;1.43;1.27;;;7.60;97.30;;;;;;5014456;28;20456;-82
2022/02/04 18:23:33;;;;;;;1.10;1.00;;;7.60;97.30;;;;;;5023357;28;20617;-81
2022/02/04 18:25:58;;;;;;;3.03;1.50;;;7.60;97.30;;;;;;5009741;28;20467;-82
2022/02/04 18:28:24;;;;;;;1.23;1.10;;;7.60;97.30;;;;;;5013726;28;20674;-82
2022/02/04 18:30:50;;;;;;;1.93;1.20;;;7.60;97.30;;;;;;5013363;28;20181;-81
2022/02/04 18:33:16;;;;;;;1.30;1.20;;;7.60;97.30;;;;;;5013884;28;20440;-81
2022/02/04 18:35:45;;;;;;;1.47;1.20;;;7.60;97.30;;;;;;5012213;28;20428;-82
2022/02/04 18:38:25;;;;;;;1.83;1.30;;;7.60;97.30;;;;;;4999418;28;20428;-81
2022/02/04 18:46:07;;;;;;;1.20;1.10;;;7.60;97.30;;;;;;5015505;28;20481;-82
2022/02/04 18:48:49;;;;;;;1.30;1.10;;;7.60;97.30;;;;;;5014069;28;20416;-82
2022/02/04 18:51:25;;;;;;;2.03;1.30;;;7.60;97.30;;;;;;5003113;28;20417;-81
2022/02/04 18:54:11;;;;;;;1.30;1.17;;;7.60;97.30;;;;;;5015874;28;20428;-82
2022/02/04 18:57:24;;;;;;;1.07;1.00;;;7.60;97.30;;;;;;5015242;28;20976;-82
2022/02/04 18:59:29;;;;;;;3.93;1.10;;;7.60;97.30;;;;;;5007947;28;20790;-83
2022/02/04 19:01:58;;;;;;;1.23;1.00;;;7.60;97.30;;;;;;5004583;28;20954;-81
2022/02/04 19:04:32;;;;;;;1.03;0.97;;;7.60;97.30;;;;;;5002497;28;20439;-82